Portada
METAR-TAF:

METAR-TAF

Aeroports :

Seül Inchon, Corea del Sud

latitud: 37-28N, longitud: 126-27E, altitud: 7 m

Observació

L'informe es va fer fa 28 minuts, a les 02:00 UTC
Vent 6 kt del Oest, variant entre Oest/Sud-Oest i Nord-Oest
Temperatura 6°C
Humitat 39%
Pressió 1031 hPa
Visibilitat 10 km o més
Escasses núvols a una alçada de 2500 ft

METAR: RKSI 230200Z 27006KT 240V310 9999 FEW025 06/M07 Q1031 NOSIG

Hora: 11:28 (02:28 UTC)

Pronòstic

L'informe es va fer fa 3 hores i 28 minuts, a les 23:00 UTC
Pronòstic vàlid del 23 a les 00 UTC al 24 a les 06 UTC
Vent 5 kt del Oest/Sud-Oest
Visibilitat 10 km o més
sense núvols per sota de 1500 mi sense presència de cumulonimbus.
Evolucionant progressivament
l' 23 a les 04 UTC al 23 a les 05 UTC
Vent 8 kt del Sud
Evolucionant progressivament
l' 24 a les 05 UTC al 24 a les 06 UTC
Vent 6 kt del Oest/Sud-Oest

TAF: RKSI 222300Z 2300/2406 25005KT CAVOK TX06/2306Z TN00/2321Z TX10/2406Z BECMG 2304/2305 18008KT BECMG 2405/2406 25006KT

Observacions i pronòstics meteorològics de més de 4000 aeroports (METAR i TAF).

Les estacions disponibles són els punts grocs i vermells al mapa.

Posi el ratolí al punt desitjat per veure el nom de l'estació.

Feu clic per veure les observacions i els pronòstics meteorològics.

Per canviar el mapa: feu clic els botons verds amb una creu de color negre per apropar; al botó verd amb un guió per allunyar la imatge; o en les fletxes verdes per a mapes adjacents.


METAR-TAF: